sensor_id;sensor_type;location;lat;lon;timestamp;P1;durP1;ratioP1;P2;durP2;ratioP2
83814;SDS011;73829;53.826;-3.034;2024-03-29T00:00:26;5.00;;;1.70;;
83814;SDS011;73829;53.826;-3.034;2024-03-29T00:03:17;6.30;;;2.00;;
83814;SDS011;73829;53.826;-3.034;2024-03-29T00:05:48;5.00;;;1.70;;
83814;SDS011;73829;53.826;-3.034;2024-03-29T00:08:18;6.20;;;1.90;;
83814;SDS011;73829;53.826;-3.034;2024-03-29T00:10:48;5.50;;;1.90;;
83814;SDS011;73829;53.826;-3.034;2024-03-29T00:13:19;4.40;;;1.60;;
83814;SDS011;73829;53.826;-3.034;2024-03-29T00:15:50;5.90;;;1.90;;
83814;SDS011;73829;53.826;-3.034;2024-03-29T00:18:20;4.70;;;1.70;;
83814;SDS011;73829;53.826;-3.034;2024-03-29T00:20:50;4.90;;;1.60;;
83814;SDS011;73829;53.826;-3.034;2024-03-29T00:23:21;5.50;;;2.20;;
83814;SDS011;73829;53.826;-3.034;2024-03-29T00:25:51;5.70;;;2.00;;
83814;SDS011;73829;53.826;-3.034;2024-03-29T00:28:25;6.30;;;2.10;;
83814;SDS011;73829;53.826;-3.034;2024-03-29T00:30:59;4.80;;;1.80;;
83814;SDS011;73829;53.826;-3.034;2024-03-29T00:33:29;5.20;;;1.70;;
83814;SDS011;73829;53.826;-3.034;2024-03-29T00:36:00;5.20;;;1.50;;
83814;SDS011;73829;53.826;-3.034;2024-03-29T00:38:31;4.80;;;1.70;;
83814;SDS011;73829;53.826;-3.034;2024-03-29T00:41:02;4.70;;;1.90;;
83814;SDS011;73829;53.826;-3.034;2024-03-29T00:43:33;4.40;;;1.60;;
83814;SDS011;73829;53.826;-3.034;2024-03-29T00:46:03;4.00;;;1.30;;
83814;SDS011;73829;53.826;-3.034;2024-03-29T00:48:34;6.20;;;1.40;;
83814;SDS011;73829;53.826;-3.034;2024-03-29T00:51:05;4.70;;;1.40;;
83814;SDS011;73829;53.826;-3.034;2024-03-29T00:53:35;3.60;;;1.40;;
83814;SDS011;73829;53.826;-3.034;2024-03-29T00:56:06;5.00;;;1.50;;
83814;SDS011;73829;53.826;-3.034;2024-03-29T00:58:37;4.00;;;1.60;;
83814;SDS011;73829;53.826;-3.034;2024-03-29T01:01:07;4.30;;;1.20;;
83814;SDS011;73829;53.826;-3.034;2024-03-29T01:03:38;4.60;;;1.30;;
83814;SDS011;73829;53.826;-3.034;2024-03-29T01:06:08;5.20;;;1.60;;
83814;SDS011;73829;53.826;-3.034;2024-03-29T01:08:39;4.80;;;1.50;;
83814;SDS011;73829;53.826;-3.034;2024-03-29T01:11:09;3.40;;;1.20;;
83814;SDS011;73829;53.826;-3.034;2024-03-29T01:13:40;4.30;;;1.50;;
83814;SDS011;73829;53.826;-3.034;2024-03-29T01:16:10;3.60;;;1.30;;
83814;SDS011;73829;53.826;-3.034;2024-03-29T01:18:41;4.20;;;1.30;;
83814;SDS011;73829;53.826;-3.034;2024-03-29T01:21:11;3.80;;;1.00;;
83814;SDS011;73829;53.826;-3.034;2024-03-29T01:23:42;6.40;;;1.30;;
83814;SDS011;73829;53.826;-3.034;2024-03-29T01:26:13;4.60;;;1.20;;
83814;SDS011;73829;53.826;-3.034;2024-03-29T01:28:44;4.10;;;1.20;;
83814;SDS011;73829;53.826;-3.034;2024-03-29T01:31:15;5.30;;;1.30;;
83814;SDS011;73829;53.826;-3.034;2024-03-29T01:33:45;5.40;;;1.40;;
83814;SDS011;73829;53.826;-3.034;2024-03-29T01:36:16;3.70;;;1.10;;
83814;SDS011;73829;53.826;-3.034;2024-03-29T01:38:46;3.40;;;1.00;;
83814;SDS011;73829;53.826;-3.034;2024-03-29T01:41:19;3.90;;;1.20;;
83814;SDS011;73829;53.826;-3.034;2024-03-29T01:43:51;3.50;;;1.20;;
83814;SDS011;73829;53.826;-3.034;2024-03-29T01:46:21;4.20;;;1.00;;
83814;SDS011;73829;53.826;-3.034;2024-03-29T01:48:53;4.60;;;1.20;;
83814;SDS011;73829;53.826;-3.034;2024-03-29T01:51:24;4.20;;;1.30;;
83814;SDS011;73829;53.826;-3.034;2024-03-29T01:53:54;3.70;;;1.00;;
83814;SDS011;73829;53.826;-3.034;2024-03-29T01:56:25;3.30;;;1.20;;
83814;SDS011;73829;53.826;-3.034;2024-03-29T01:58:55;3.70;;;1.10;;
83814;SDS011;73829;53.826;-3.034;2024-03-29T02:01:28;3.40;;;1.10;;
83814;SDS011;73829;53.826;-3.034;2024-03-29T02:03:59;3.60;;;1.00;;
83814;SDS011;73829;53.826;-3.034;2024-03-29T02:06:30;4.30;;;1.10;;
83814;SDS011;73829;53.826;-3.034;2024-03-29T02:11:31;3.40;;;0.90;;
83814;SDS011;73829;53.826;-3.034;2024-03-29T02:14:03;3.50;;;1.00;;
83814;SDS011;73829;53.826;-3.034;2024-03-29T02:16:34;2.60;;;0.90;;
83814;SDS011;73829;53.826;-3.034;2024-03-29T02:19:06;2.80;;;0.90;;
83814;SDS011;73829;53.826;-3.034;2024-03-29T02:21:36;3.90;;;1.10;;
83814;SDS011;73829;53.826;-3.034;2024-03-29T02:24:11;3.00;;;0.90;;
83814;SDS011;73829;53.826;-3.034;2024-03-29T02:26:43;3.50;;;0.90;;
83814;SDS011;73829;53.826;-3.034;2024-03-29T02:29:14;2.70;;;0.80;;
83814;SDS011;73829;53.826;-3.034;2024-03-29T02:31:45;4.10;;;1.20;;
83814;SDS011;73829;53.826;-3.034;2024-03-29T02:34:15;4.60;;;1.00;;
83814;SDS011;73829;53.826;-3.034;2024-03-29T02:36:46;3.00;;;0.90;;
83814;SDS011;73829;53.826;-3.034;2024-03-29T02:39:16;2.50;;;0.70;;
83814;SDS011;73829;53.826;-3.034;2024-03-29T02:41:47;3.00;;;0.90;;
83814;SDS011;73829;53.826;-3.034;2024-03-29T02:44:17;2.90;;;0.80;;
83814;SDS011;73829;53.826;-3.034;2024-03-29T02:46:48;3.70;;;0.90;;
83814;SDS011;73829;53.826;-3.034;2024-03-29T02:49:18;2.80;;;0.90;;
83814;SDS011;73829;53.826;-3.034;2024-03-29T02:51:49;2.70;;;1.00;;
83814;SDS011;73829;53.826;-3.034;2024-03-29T02:54:20;3.40;;;1.10;;
83814;SDS011;73829;53.826;-3.034;2024-03-29T02:56:51;3.50;;;1.10;;
83814;SDS011;73829;53.826;-3.034;2024-03-29T02:59:21;3.40;;;0.80;;
83814;SDS011;73829;53.826;-3.034;2024-03-29T03:01:51;2.90;;;0.90;;
83814;SDS011;73829;53.826;-3.034;2024-03-29T03:04:22;3.10;;;1.00;;
83814;SDS011;73829;53.826;-3.034;2024-03-29T03:06:53;2.50;;;0.70;;
83814;SDS011;73829;53.826;-3.034;2024-03-29T03:09:33;3.60;;;0.90;;
83814;SDS011;73829;53.826;-3.034;2024-03-29T03:12:25;3.00;;;0.90;;
83814;SDS011;73829;53.826;-3.034;2024-03-29T03:14:57;3.60;;;0.80;;
83814;SDS011;73829;53.826;-3.034;2024-03-29T03:17:28;2.70;;;0.90;;
83814;SDS011;73829;53.826;-3.034;2024-03-29T03:19:59;2.30;;;0.70;;
83814;SDS011;73829;53.826;-3.034;2024-03-29T03:22:34;2.90;;;1.00;;
83814;SDS011;73829;53.826;-3.034;2024-03-29T03:25:05;3.70;;;0.90;;
83814;SDS011;73829;53.826;-3.034;2024-03-29T03:27:36;2.60;;;0.70;;
83814;SDS011;73829;53.826;-3.034;2024-03-29T03:30:08;3.30;;;1.00;;
83814;SDS011;73829;53.826;-3.034;2024-03-29T03:32:40;1.90;;;0.60;;
83814;SDS011;73829;53.826;-3.034;2024-03-29T03:35:10;3.50;;;0.90;;
83814;SDS011;73829;53.826;-3.034;2024-03-29T03:37:40;3.70;;;1.10;;
83814;SDS011;73829;53.826;-3.034;2024-03-29T03:40:11;2.70;;;0.80;;
83814;SDS011;73829;53.826;-3.034;2024-03-29T03:45:14;2.80;;;0.80;;
83814;SDS011;73829;53.826;-3.034;2024-03-29T03:47:44;2.70;;;0.80;;
83814;SDS011;73829;53.826;-3.034;2024-03-29T03:50:15;1.70;;;0.50;;
83814;SDS011;73829;53.826;-3.034;2024-03-29T03:52:45;3.60;;;1.00;;
83814;SDS011;73829;53.826;-3.034;2024-03-29T03:55:16;2.40;;;0.60;;
83814;SDS011;73829;53.826;-3.034;2024-03-29T03:57:46;2.20;;;0.70;;
83814;SDS011;73829;53.826;-3.034;2024-03-29T04:00:18;2.10;;;0.70;;
83814;SDS011;73829;53.826;-3.034;2024-03-29T04:02:51;1.90;;;0.60;;
83814;SDS011;73829;53.826;-3.034;2024-03-29T04:05:21;1.90;;;0.60;;
83814;SDS011;73829;53.826;-3.034;2024-03-29T04:07:53;2.30;;;0.80;;
83814;SDS011;73829;53.826;-3.034;2024-03-29T04:10:24;2.50;;;0.70;;
83814;SDS011;73829;53.826;-3.034;2024-03-29T04:12:54;2.30;;;0.80;;
83814;SDS011;73829;53.826;-3.034;2024-03-29T04:15:25;2.40;;;0.70;;
83814;SDS011;73829;53.826;-3.034;2024-03-29T04:17:55;2.00;;;0.60;;
83814;SDS011;73829;53.826;-3.034;2024-03-29T04:22:55;2.50;;;0.70;;
83814;SDS011;73829;53.826;-3.034;2024-03-29T04:25:26;1.70;;;0.50;;
83814;SDS011;73829;53.826;-3.034;2024-03-29T04:27:56;2.30;;;0.60;;
83814;SDS011;73829;53.826;-3.034;2024-03-29T04:30:27;2.20;;;0.60;;
83814;SDS011;73829;53.826;-3.034;2024-03-29T04:32:57;2.00;;;0.60;;
83814;SDS011;73829;53.826;-3.034;2024-03-29T04:35:28;2.60;;;0.80;;
83814;SDS011;73829;53.826;-3.034;2024-03-29T04:37:58;2.60;;;0.60;;
83814;SDS011;73829;53.826;-3.034;2024-03-29T04:40:28;1.80;;;0.60;;
83814;SDS011;73829;53.826;-3.034;2024-03-29T04:45:28;1.30;;;0.60;;
83814;SDS011;73829;53.826;-3.034;2024-03-29T04:47:59;2.00;;;0.50;;
83814;SDS011;73829;53.826;-3.034;2024-03-29T04:50:30;3.40;;;0.90;;
83814;SDS011;73829;53.826;-3.034;2024-03-29T04:53:00;2.10;;;0.70;;
83814;SDS011;73829;53.826;-3.034;2024-03-29T04:55:31;1.80;;;0.60;;
83814;SDS011;73829;53.826;-3.034;2024-03-29T04:58:02;2.10;;;0.60;;
83814;SDS011;73829;53.826;-3.034;2024-03-29T05:00:33;2.40;;;0.70;;
83814;SDS011;73829;53.826;-3.034;2024-03-29T05:05:34;2.10;;;0.60;;
83814;SDS011;73829;53.826;-3.034;2024-03-29T05:08:05;2.10;;;0.60;;
83814;SDS011;73829;53.826;-3.034;2024-03-29T05:10:36;2.70;;;0.70;;
83814;SDS011;73829;53.826;-3.034;2024-03-29T05:13:07;1.60;;;0.50;;
83814;SDS011;73829;53.826;-3.034;2024-03-29T05:15:38;2.30;;;0.70;;
83814;SDS011;73829;53.826;-3.034;2024-03-29T05:18:08;1.50;;;0.40;;
83814;SDS011;73829;53.826;-3.034;2024-03-29T05:20:39;0.90;;;0.30;;
83814;SDS011;73829;53.826;-3.034;2024-03-29T05:23:14;1.90;;;0.60;;
83814;SDS011;73829;53.826;-3.034;2024-03-29T05:25:45;1.10;;;0.40;;
83814;SDS011;73829;53.826;-3.034;2024-03-29T05:28:16;1.90;;;0.50;;
83814;SDS011;73829;53.826;-3.034;2024-03-29T05:30:46;2.30;;;0.70;;
83814;SDS011;73829;53.826;-3.034;2024-03-29T05:33:17;1.60;;;0.50;;
83814;SDS011;73829;53.826;-3.034;2024-03-29T05:35:47;2.20;;;0.70;;
83814;SDS011;73829;53.826;-3.034;2024-03-29T05:38:18;1.30;;;0.30;;
83814;SDS011;73829;53.826;-3.034;2024-03-29T05:40:48;2.20;;;0.50;;
83814;SDS011;73829;53.826;-3.034;2024-03-29T05:43:19;1.20;;;0.40;;
83814;SDS011;73829;53.826;-3.034;2024-03-29T05:45:51;2.50;;;0.60;;
83814;SDS011;73829;53.826;-3.034;2024-03-29T05:48:22;2.00;;;0.50;;
83814;SDS011;73829;53.826;-3.034;2024-03-29T05:50:53;2.10;;;0.50;;
83814;SDS011;73829;53.826;-3.034;2024-03-29T05:55:52;2.10;;;0.60;;
83814;SDS011;73829;53.826;-3.034;2024-03-29T05:58:23;2.00;;;0.50;;
83814;SDS011;73829;53.826;-3.034;2024-03-29T06:00:53;2.10;;;0.50;;
83814;SDS011;73829;53.826;-3.034;2024-03-29T06:03:25;2.00;;;0.50;;
83814;SDS011;73829;53.826;-3.034;2024-03-29T06:05:57;1.60;;;0.40;;
83814;SDS011;73829;53.826;-3.034;2024-03-29T06:08:27;1.40;;;0.40;;
83814;SDS011;73829;53.826;-3.034;2024-03-29T06:10:58;1.00;;;0.40;;
83814;SDS011;73829;53.826;-3.034;2024-03-29T06:13:29;2.00;;;0.50;;
83814;SDS011;73829;53.826;-3.034;2024-03-29T06:16:13;1.90;;;0.50;;
83814;SDS011;73829;53.826;-3.034;2024-03-29T06:19:01;1.40;;;0.40;;
83814;SDS011;73829;53.826;-3.034;2024-03-29T06:21:32;1.80;;;0.50;;
83814;SDS011;73829;53.826;-3.034;2024-03-29T06:24:07;1.40;;;0.40;;
83814;SDS011;73829;53.826;-3.034;2024-03-29T06:26:40;0.80;;;0.40;;
83814;SDS011;73829;53.826;-3.034;2024-03-29T06:29:11;1.10;;;0.40;;
83814;SDS011;73829;53.826;-3.034;2024-03-29T06:31:42;2.10;;;0.60;;
83814;SDS011;73829;53.826;-3.034;2024-03-29T06:34:13;1.60;;;0.50;;
83814;SDS011;73829;53.826;-3.034;2024-03-29T06:36:43;1.70;;;0.30;;
83814;SDS011;73829;53.826;-3.034;2024-03-29T06:39:14;1.90;;;0.40;;
83814;SDS011;73829;53.826;-3.034;2024-03-29T06:41:44;2.20;;;0.50;;
83814;SDS011;73829;53.826;-3.034;2024-03-29T06:44:15;1.20;;;0.40;;
83814;SDS011;73829;53.826;-3.034;2024-03-29T06:46:46;0.80;;;0.30;;
83814;SDS011;73829;53.826;-3.034;2024-03-29T06:49:17;1.80;;;0.40;;
83814;SDS011;73829;53.826;-3.034;2024-03-29T06:51:47;1.70;;;0.50;;
83814;SDS011;73829;53.826;-3.034;2024-03-29T06:54:18;2.10;;;0.50;;
83814;SDS011;73829;53.826;-3.034;2024-03-29T06:56:49;1.60;;;0.40;;
83814;SDS011;73829;53.826;-3.034;2024-03-29T06:59:20;1.70;;;0.40;;
83814;SDS011;73829;53.826;-3.034;2024-03-29T07:01:51;1.70;;;0.60;;
83814;SDS011;73829;53.826;-3.034;2024-03-29T07:04:23;0.80;;;0.30;;
83814;SDS011;73829;53.826;-3.034;2024-03-29T07:06:55;1.70;;;0.40;;
83814;SDS011;73829;53.826;-3.034;2024-03-29T07:09:26;1.00;;;0.30;;
83814;SDS011;73829;53.826;-3.034;2024-03-29T07:11:56;2.70;;;0.40;;
83814;SDS011;73829;53.826;-3.034;2024-03-29T07:16:58;2.20;;;0.50;;
83814;SDS011;73829;53.826;-3.034;2024-03-29T07:19:29;1.90;;;0.40;;
83814;SDS011;73829;53.826;-3.034;2024-03-29T07:22:00;2.10;;;0.50;;
83814;SDS011;73829;53.826;-3.034;2024-03-29T07:24:30;1.00;;;0.40;;
83814;SDS011;73829;53.826;-3.034;2024-03-29T07:29:30;1.50;;;0.30;;
83814;SDS011;73829;53.826;-3.034;2024-03-29T07:32:01;1.50;;;0.30;;
83814;SDS011;73829;53.826;-3.034;2024-03-29T07:34:32;1.40;;;0.30;;
83814;SDS011;73829;53.826;-3.034;2024-03-29T07:37:03;1.20;;;0.40;;
83814;SDS011;73829;53.826;-3.034;2024-03-29T07:39:34;0.70;;;0.30;;
83814;SDS011;73829;53.826;-3.034;2024-03-29T07:42:04;1.30;;;0.30;;
83814;SDS011;73829;53.826;-3.034;2024-03-29T07:44:35;1.70;;;0.50;;
83814;SDS011;73829;53.826;-3.034;2024-03-29T07:47:05;1.60;;;0.50;;
83814;SDS011;73829;53.826;-3.034;2024-03-29T07:49:36;1.80;;;0.60;;
83814;SDS011;73829;53.826;-3.034;2024-03-29T07:52:06;2.50;;;0.70;;
83814;SDS011;73829;53.826;-3.034;2024-03-29T07:54:37;2.20;;;0.50;;
83814;SDS011;73829;53.826;-3.034;2024-03-29T07:57:08;1.60;;;0.60;;
83814;SDS011;73829;53.826;-3.034;2024-03-29T07:59:39;1.40;;;0.50;;
83814;SDS011;73829;53.826;-3.034;2024-03-29T08:02:09;1.40;;;0.40;;
83814;SDS011;73829;53.826;-3.034;2024-03-29T08:04:40;1.10;;;0.40;;
83814;SDS011;73829;53.826;-3.034;2024-03-29T08:07:12;1.20;;;0.50;;
83814;SDS011;73829;53.826;-3.034;2024-03-29T08:09:43;3.60;;;0.60;;
83814;SDS011;73829;53.826;-3.034;2024-03-29T08:12:13;1.50;;;0.40;;
83814;SDS011;73829;53.826;-3.034;2024-03-29T08:17:14;3.40;;;0.70;;
83814;SDS011;73829;53.826;-3.034;2024-03-29T08:19:44;3.20;;;0.90;;
83814;SDS011;73829;53.826;-3.034;2024-03-29T08:22:15;6.00;;;1.40;;
83814;SDS011;73829;53.826;-3.034;2024-03-29T08:24:46;3.00;;;0.90;;
83814;SDS011;73829;53.826;-3.034;2024-03-29T08:27:16;3.30;;;1.00;;
83814;SDS011;73829;53.826;-3.034;2024-03-29T08:29:47;5.00;;;1.30;;
83814;SDS011;73829;53.826;-3.034;2024-03-29T08:32:18;4.10;;;1.40;;
83814;SDS011;73829;53.826;-3.034;2024-03-29T08:34:49;4.40;;;1.20;;
83814;SDS011;73829;53.826;-3.034;2024-03-29T08:37:20;4.30;;;1.10;;
83814;SDS011;73829;53.826;-3.034;2024-03-29T08:39:50;5.00;;;1.30;;
83814;SDS011;73829;53.826;-3.034;2024-03-29T08:42:21;4.10;;;1.30;;
83814;SDS011;73829;53.826;-3.034;2024-03-29T08:44:52;5.80;;;1.40;;
83814;SDS011;73829;53.826;-3.034;2024-03-29T08:47:22;4.60;;;1.20;;
83814;SDS011;73829;53.826;-3.034;2024-03-29T08:49:53;5.40;;;1.50;;
83814;SDS011;73829;53.826;-3.034;2024-03-29T08:52:24;3.50;;;1.40;;
83814;SDS011;73829;53.826;-3.034;2024-03-29T08:54:54;4.70;;;1.40;;
83814;SDS011;73829;53.826;-3.034;2024-03-29T08:57:25;4.50;;;1.40;;
83814;SDS011;73829;53.826;-3.034;2024-03-29T08:59:55;3.40;;;1.20;;
83814;SDS011;73829;53.826;-3.034;2024-03-29T09:02:26;4.00;;;1.40;;
83814;SDS011;73829;53.826;-3.034;2024-03-29T09:04:57;4.20;;;1.50;;
83814;SDS011;73829;53.826;-3.034;2024-03-29T09:07:28;4.30;;;1.60;;
83814;SDS011;73829;53.826;-3.034;2024-03-29T09:09:59;4.40;;;1.30;;
83814;SDS011;73829;53.826;-3.034;2024-03-29T09:12:30;3.70;;;1.30;;
83814;SDS011;73829;53.826;-3.034;2024-03-29T09:15:00;6.90;;;1.80;;
83814;SDS011;73829;53.826;-3.034;2024-03-29T09:17:36;3.90;;;1.40;;
83814;SDS011;73829;53.826;-3.034;2024-03-29T09:20:07;5.20;;;1.60;;
83814;SDS011;73829;53.826;-3.034;2024-03-29T09:22:39;4.70;;;1.60;;
83814;SDS011;73829;53.826;-3.034;2024-03-29T09:25:10;4.70;;;1.40;;
83814;SDS011;73829;53.826;-3.034;2024-03-29T09:27:44;4.30;;;1.50;;
83814;SDS011;73829;53.826;-3.034;2024-03-29T09:30:17;5.40;;;1.20;;
83814;SDS011;73829;53.826;-3.034;2024-03-29T09:32:49;3.20;;;1.00;;
83814;SDS011;73829;53.826;-3.034;2024-03-29T09:35:20;4.60;;;1.00;;
83814;SDS011;73829;53.826;-3.034;2024-03-29T09:37:50;3.30;;;1.10;;
83814;SDS011;73829;53.826;-3.034;2024-03-29T09:40:21;3.70;;;1.20;;
83814;SDS011;73829;53.826;-3.034;2024-03-29T09:42:51;4.90;;;1.10;;
83814;SDS011;73829;53.826;-3.034;2024-03-29T09:45:25;3.30;;;1.00;;
83814;SDS011;73829;53.826;-3.034;2024-03-29T09:47:56;4.80;;;0.90;;
83814;SDS011;73829;53.826;-3.034;2024-03-29T09:50:28;4.20;;;1.10;;
83814;SDS011;73829;53.826;-3.034;2024-03-29T09:52:59;3.50;;;1.10;;
83814;SDS011;73829;53.826;-3.034;2024-03-29T09:55:30;4.50;;;1.10;;
83814;SDS011;73829;53.826;-3.034;2024-03-29T09:58:02;4.50;;;1.10;;
83814;SDS011;73829;53.826;-3.034;2024-03-29T10:00:34;3.40;;;1.10;;
83814;SDS011;73829;53.826;-3.034;2024-03-29T10:03:05;3.00;;;1.00;;
83814;SDS011;73829;53.826;-3.034;2024-03-29T10:05:37;5.30;;;1.10;;
83814;SDS011;73829;53.826;-3.034;2024-03-29T10:10:37;2.50;;;0.90;;
83814;SDS011;73829;53.826;-3.034;2024-03-29T10:15:36;3.10;;;1.00;;
83814;SDS011;73829;53.826;-3.034;2024-03-29T10:18:11;3.60;;;0.90;;
83814;SDS011;73829;53.826;-3.034;2024-03-29T10:23:11;3.40;;;1.10;;
83814;SDS011;73829;53.826;-3.034;2024-03-29T10:25:44;4.50;;;1.00;;
83814;SDS011;73829;53.826;-3.034;2024-03-29T10:28:14;5.90;;;1.30;;
83814;SDS011;73829;53.826;-3.034;2024-03-29T10:30:47;5.10;;;1.20;;
83814;SDS011;73829;53.826;-3.034;2024-03-29T10:33:18;4.30;;;1.30;;
83814;SDS011;73829;53.826;-3.034;2024-03-29T10:35:49;4.40;;;1.10;;
83814;SDS011;73829;53.826;-3.034;2024-03-29T10:38:19;4.30;;;0.90;;
83814;SDS011;73829;53.826;-3.034;2024-03-29T10:40:50;3.80;;;1.10;;
83814;SDS011;73829;53.826;-3.034;2024-03-29T10:43:21;5.60;;;1.40;;
83814;SDS011;73829;53.826;-3.034;2024-03-29T10:45:54;2.90;;;1.00;;
83814;SDS011;73829;53.826;-3.034;2024-03-29T10:48:27;4.00;;;1.00;;
83814;SDS011;73829;53.826;-3.034;2024-03-29T10:50:59;3.20;;;1.20;;
83814;SDS011;73829;53.826;-3.034;2024-03-29T10:53:30;4.50;;;1.40;;
83814;SDS011;73829;53.826;-3.034;2024-03-29T10:56:01;5.60;;;1.70;;
83814;SDS011;73829;53.826;-3.034;2024-03-29T10:58:37;4.50;;;1.90;;
83814;SDS011;73829;53.826;-3.034;2024-03-29T11:01:16;5.00;;;2.40;;
83814;SDS011;73829;53.826;-3.034;2024-03-29T11:03:49;7.00;;;2.70;;
83814;SDS011;73829;53.826;-3.034;2024-03-29T11:06:23;6.70;;;3.00;;
83814;SDS011;73829;53.826;-3.034;2024-03-29T11:08:57;6.80;;;3.70;;
83814;SDS011;73829;53.826;-3.034;2024-03-29T11:11:30;7.20;;;4.10;;
83814;SDS011;73829;53.826;-3.034;2024-03-29T11:14:05;10.20;;;5.60;;
83814;SDS011;73829;53.826;-3.034;2024-03-29T11:16:39;8.20;;;5.70;;
83814;SDS011;73829;53.826;-3.034;2024-03-29T11:19:13;9.90;;;6.60;;
83814;SDS011;73829;53.826;-3.034;2024-03-29T11:21:45;10.50;;;6.20;;
83814;SDS011;73829;53.826;-3.034;2024-03-29T11:24:17;10.70;;;6.70;;
83814;SDS011;73829;53.826;-3.034;2024-03-29T11:26:51;9.50;;;6.40;;
83814;SDS011;73829;53.826;-3.034;2024-03-29T11:29:22;11.30;;;7.10;;
83814;SDS011;73829;53.826;-3.034;2024-03-29T11:31:59;9.70;;;6.20;;
83814;SDS011;73829;53.826;-3.034;2024-03-29T11:34:31;9.20;;;5.40;;
83814;SDS011;73829;53.826;-3.034;2024-03-29T11:37:08;8.60;;;5.80;;
83814;SDS011;73829;53.826;-3.034;2024-03-29T11:39:40;8.30;;;5.90;;
83814;SDS011;73829;53.826;-3.034;2024-03-29T11:42:15;10.20;;;6.00;;
83814;SDS011;73829;53.826;-3.034;2024-03-29T11:44:45;9.90;;;6.10;;
83814;SDS011;73829;53.826;-3.034;2024-03-29T11:47:16;8.50;;;5.50;;
83814;SDS011;73829;53.826;-3.034;2024-03-29T11:49:56;9.40;;;6.10;;
83814;SDS011;73829;53.826;-3.034;2024-03-29T11:52:27;8.90;;;5.50;;
83814;SDS011;73829;53.826;-3.034;2024-03-29T11:54:57;9.30;;;5.90;;
83814;SDS011;73829;53.826;-3.034;2024-03-29T11:57:28;8.60;;;5.00;;
83814;SDS011;73829;53.826;-3.034;2024-03-29T11:59:59;9.80;;;5.60;;
83814;SDS011;73829;53.826;-3.034;2024-03-29T12:02:30;7.60;;;4.80;;
83814;SDS011;73829;53.826;-3.034;2024-03-29T12:05:01;8.30;;;5.20;;
83814;SDS011;73829;53.826;-3.034;2024-03-29T12:07:37;9.10;;;4.90;;
83814;SDS011;73829;53.826;-3.034;2024-03-29T12:10:09;7.50;;;4.60;;
83814;SDS011;73829;53.826;-3.034;2024-03-29T12:12:40;8.00;;;4.70;;
83814;SDS011;73829;53.826;-3.034;2024-03-29T12:15:12;9.70;;;4.80;;
83814;SDS011;73829;53.826;-3.034;2024-03-29T12:17:42;7.50;;;4.50;;
83814;SDS011;73829;53.826;-3.034;2024-03-29T12:20:23;7.00;;;4.20;;
83814;SDS011;73829;53.826;-3.034;2024-03-29T12:22:54;6.00;;;4.00;;
83814;SDS011;73829;53.826;-3.034;2024-03-29T12:25:25;8.40;;;4.60;;
83814;SDS011;73829;53.826;-3.034;2024-03-29T12:27:57;7.20;;;3.70;;
83814;SDS011;73829;53.826;-3.034;2024-03-29T12:30:28;7.10;;;3.60;;
83814;SDS011;73829;53.826;-3.034;2024-03-29T12:33:02;7.00;;;3.80;;
83814;SDS011;73829;53.826;-3.034;2024-03-29T12:35:35;7.10;;;3.40;;
83814;SDS011;73829;53.826;-3.034;2024-03-29T12:38:06;7.10;;;3.80;;
83814;SDS011;73829;53.826;-3.034;2024-03-29T12:40:37;6.20;;;3.70;;
83814;SDS011;73829;53.826;-3.034;2024-03-29T12:43:10;7.00;;;3.60;;
83814;SDS011;73829;53.826;-3.034;2024-03-29T12:45:42;6.30;;;3.40;;
83814;SDS011;73829;53.826;-3.034;2024-03-29T12:50:44;6.70;;;3.40;;
83814;SDS011;73829;53.826;-3.034;2024-03-29T12:53:16;6.80;;;3.50;;
83814;SDS011;73829;53.826;-3.034;2024-03-29T12:55:47;5.90;;;3.30;;
83814;SDS011;73829;53.826;-3.034;2024-03-29T12:58:18;5.50;;;3.00;;
83814;SDS011;73829;53.826;-3.034;2024-03-29T13:00:50;5.60;;;3.00;;
83814;SDS011;73829;53.826;-3.034;2024-03-29T13:03:24;6.20;;;3.30;;
83814;SDS011;73829;53.826;-3.034;2024-03-29T13:05:55;6.70;;;3.00;;
83814;SDS011;73829;53.826;-3.034;2024-03-29T13:08:26;5.20;;;3.00;;
83814;SDS011;73829;53.826;-3.034;2024-03-29T13:10:56;5.40;;;2.80;;
83814;SDS011;73829;53.826;-3.034;2024-03-29T13:13:27;9.30;;;3.30;;
83814;SDS011;73829;53.826;-3.034;2024-03-29T13:15:57;4.70;;;2.80;;
83814;SDS011;73829;53.826;-3.034;2024-03-29T13:20:57;5.90;;;2.90;;
83814;SDS011;73829;53.826;-3.034;2024-03-29T13:23:29;5.10;;;2.20;;
83814;SDS011;73829;53.826;-3.034;2024-03-29T13:26:00;5.80;;;2.70;;
83814;SDS011;73829;53.826;-3.034;2024-03-29T13:31:00;5.10;;;2.20;;
83814;SDS011;73829;53.826;-3.034;2024-03-29T13:33:31;6.30;;;2.20;;
83814;SDS011;73829;53.826;-3.034;2024-03-29T13:36:01;6.40;;;2.30;;
83814;SDS011;73829;53.826;-3.034;2024-03-29T13:41:03;6.20;;;2.60;;
83814;SDS011;73829;53.826;-3.034;2024-03-29T13:43:37;5.20;;;2.00;;
83814;SDS011;73829;53.826;-3.034;2024-03-29T13:46:10;6.90;;;2.30;;
83814;SDS011;73829;53.826;-3.034;2024-03-29T13:48:40;7.80;;;2.40;;
83814;SDS011;73829;53.826;-3.034;2024-03-29T13:51:14;4.90;;;2.40;;
83814;SDS011;73829;53.826;-3.034;2024-03-29T13:53:45;5.20;;;2.40;;
83814;SDS011;73829;53.826;-3.034;2024-03-29T13:56:16;5.20;;;1.80;;
83814;SDS011;73829;53.826;-3.034;2024-03-29T13:58:46;6.40;;;2.10;;
83814;SDS011;73829;53.826;-3.034;2024-03-29T14:01:17;4.90;;;1.90;;
83814;SDS011;73829;53.826;-3.034;2024-03-29T14:03:48;5.50;;;2.00;;
83814;SDS011;73829;53.826;-3.034;2024-03-29T14:06:20;5.70;;;2.10;;
83814;SDS011;73829;53.826;-3.034;2024-03-29T14:11:20;4.50;;;2.00;;
83814;SDS011;73829;53.826;-3.034;2024-03-29T14:13:50;4.60;;;2.10;;
83814;SDS011;73829;53.826;-3.034;2024-03-29T14:16:23;3.80;;;1.60;;
83814;SDS011;73829;53.826;-3.034;2024-03-29T14:18:54;4.20;;;1.70;;
83814;SDS011;73829;53.826;-3.034;2024-03-29T14:21:25;3.80;;;1.50;;
83814;SDS011;73829;53.826;-3.034;2024-03-29T14:23:56;5.90;;;1.50;;
83814;SDS011;73829;53.826;-3.034;2024-03-29T14:26:26;4.40;;;1.80;;
83814;SDS011;73829;53.826;-3.034;2024-03-29T14:28:57;3.60;;;1.60;;
83814;SDS011;73829;53.826;-3.034;2024-03-29T14:31:27;4.40;;;1.70;;
83814;SDS011;73829;53.826;-3.034;2024-03-29T14:36:27;3.40;;;1.40;;
83814;SDS011;73829;53.826;-3.034;2024-03-29T14:39:00;3.60;;;1.50;;
83814;SDS011;73829;53.826;-3.034;2024-03-29T14:41:30;4.70;;;1.60;;
83814;SDS011;73829;53.826;-3.034;2024-03-29T14:44:04;4.30;;;1.60;;
83814;SDS011;73829;53.826;-3.034;2024-03-29T14:46:35;3.70;;;1.50;;
83814;SDS011;73829;53.826;-3.034;2024-03-29T14:49:05;4.90;;;1.50;;
83814;SDS011;73829;53.826;-3.034;2024-03-29T14:51:38;5.40;;;1.50;;
83814;SDS011;73829;53.826;-3.034;2024-03-29T14:54:09;3.40;;;1.50;;
83814;SDS011;73829;53.826;-3.034;2024-03-29T14:56:39;3.60;;;1.40;;
83814;SDS011;73829;53.826;-3.034;2024-03-29T14:59:11;4.30;;;1.40;;
83814;SDS011;73829;53.826;-3.034;2024-03-29T15:01:42;3.60;;;1.40;;
83814;SDS011;73829;53.826;-3.034;2024-03-29T15:04:12;3.70;;;1.20;;
83814;SDS011;73829;53.826;-3.034;2024-03-29T15:06:43;3.60;;;1.00;;
83814;SDS011;73829;53.826;-3.034;2024-03-29T15:09:17;4.20;;;1.10;;
83814;SDS011;73829;53.826;-3.034;2024-03-29T15:11:47;3.80;;;1.10;;
83814;SDS011;73829;53.826;-3.034;2024-03-29T15:14:18;2.80;;;1.10;;
83814;SDS011;73829;53.826;-3.034;2024-03-29T15:16:48;3.90;;;1.20;;
83814;SDS011;73829;53.826;-3.034;2024-03-29T15:19:19;2.80;;;1.00;;
83814;SDS011;73829;53.826;-3.034;2024-03-29T15:21:49;5.00;;;1.20;;
83814;SDS011;73829;53.826;-3.034;2024-03-29T15:24:20;4.30;;;1.10;;
83814;SDS011;73829;53.826;-3.034;2024-03-29T15:26:51;3.00;;;1.10;;
83814;SDS011;73829;53.826;-3.034;2024-03-29T15:29:26;4.70;;;1.10;;
83814;SDS011;73829;53.826;-3.034;2024-03-29T15:31:56;3.60;;;1.10;;
83814;SDS011;73829;53.826;-3.034;2024-03-29T15:34:26;4.30;;;1.30;;
83814;SDS011;73829;53.826;-3.034;2024-03-29T15:36:57;5.00;;;1.20;;
83814;SDS011;73829;53.826;-3.034;2024-03-29T15:39:27;4.30;;;1.00;;
83814;SDS011;73829;53.826;-3.034;2024-03-29T15:41:58;3.20;;;1.00;;